Time;durP1;ratioP1;P1;durP2;ratioP2;P2;SDS_P1;SDS_P2;PMS_P1;PMS_P2;Temp;Humidity;BMP_temperature;BMP_pressure;BME280_temperature;BME280_humidity;BME280_pressure;Samples;Min_cycle;Max_cycle;Signal;HPM_P1;HPM_P2
2022/07/15 00:01:42;;;;;;;3.55;1.80;;;;;;;;;;5031323;28;20037;-74
2022/07/15 00:04:10;;;;;;;4.45;1.80;;;;;;;;;;5023639;28;20100;-74
2022/07/15 00:06:36;;;;;;;5.65;2.00;;;;;;;;;;5030397;28;20059;-74
2022/07/15 00:09:02;;;;;;;4.47;1.88;;;;;;;;;;5018781;28;20052;-74
2022/07/15 00:11:28;;;;;;;4.93;2.03;;;;;;;;;;5023763;28;20049;-74
2022/07/15 00:13:54;;;;;;;6.95;1.80;;;;;;;;;;5040215;28;20069;-74
2022/07/15 00:16:20;;;;;;;4.70;2.08;;;;;;;;;;5018213;28;20073;-74
2022/07/15 00:18:46;;;;;;;3.65;1.80;;;;;;;;;;5022731;28;20576;-74
2022/07/15 00:21:12;;;;;;;4.25;1.88;;;;;;;;;;5030397;28;20514;-74
2022/07/15 00:23:38;;;;;;;4.78;1.60;;;;;;;;;;5024292;28;20049;-74
2022/07/15 00:26:04;;;;;;;4.60;1.60;;;;;;;;;;5020491;28;20038;-74
2022/07/15 00:28:30;;;;;;;2.20;1.60;;;;;;;;;;5022960;28;20040;-73
2022/07/15 00:30:56;;;;;;;3.47;1.50;;;;;;;;;;5040654;28;20488;-74
2022/07/15 00:33:22;;;;;;;3.17;1.50;;;;;;;;;;5029127;28;20951;-74
2022/07/15 00:35:49;;;;;;;2.67;1.55;;;;;;;;;;5057435;28;20072;-74
2022/07/15 00:38:15;;;;;;;5.07;2.03;;;;;;;;;;5025526;28;20072;-74
2022/07/15 00:40:42;;;;;;;6.13;1.70;;;;;;;;;;5016334;28;20089;-74
2022/07/15 00:43:08;;;;;;;4.60;1.90;;;;;;;;;;5023783;28;20046;-74
2022/07/15 00:45:35;;;;;;;4.53;1.73;;;;;;;;;;5041262;28;20038;-74
2022/07/15 00:48:01;;;;;;;5.47;1.85;;;;;;;;;;5022364;28;20128;-73
2022/07/15 00:50:28;;;;;;;5.28;1.70;;;;;;;;;;5060446;28;20128;-74
2022/07/15 00:53:03;;;;;;;2.97;1.40;;;22.40;95.90;;;;;;5031015;28;20497;-74
2022/07/15 00:55:37;;;;;;;7.38;1.70;;;17.10;99.90;;;;;;5043748;28;20094;-75
2022/07/15 00:58:04;;;;;;;6.28;2.00;;;16.90;99.90;;;;;;5016918;28;20072;-74
2022/07/15 01:00:31;;;;;;;4.82;1.58;;;16.80;99.90;;;;;;5029241;28;20049;-74
2022/07/15 01:02:58;;;;;;;5.65;1.77;;;16.80;99.90;;;;;;5029863;28;20485;-74
2022/07/15 01:05:25;;;;;;;2.95;1.60;;;16.90;99.90;;;;;;5021274;28;20056;-74
2022/07/15 01:07:51;;;;;;;3.92;2.00;;;16.80;99.90;;;;;;5024062;28;20401;-74
2022/07/15 01:10:18;;;;;;;4.60;1.70;;;16.80;99.90;;;;;;5031667;28;20051;-74
2022/07/15 01:12:46;;;;;;;4.50;1.50;;;16.70;99.90;;;;;;5027919;28;20053;-75
2022/07/15 01:15:13;;;;;;;4.57;1.40;;;16.70;99.90;;;;;;5027456;28;20451;-74
2022/07/15 01:17:38;;;;;;;1.80;1.30;;;16.70;99.90;;;;;;5010075;28;20076;-75
2022/07/15 01:20:06;;;;;;;4.40;1.77;;;16.60;99.90;;;;;;5013237;28;20129;-74
2022/07/15 01:22:31;;;;;;;5.15;1.42;;;16.60;99.90;;;;;;5028024;28;20057;-75
2022/07/15 01:24:58;;;;;;;4.03;1.35;;;16.50;99.90;;;;;;5020730;28;20041;-74
2022/07/15 01:27:25;;;;;;;3.47;1.55;;;16.50;99.90;;;;;;5037024;28;20043;-74
2022/07/15 01:29:50;;;;;;;2.95;1.63;;;16.30;99.90;;;;;;5021722;28;20114;-75
2022/07/15 01:32:16;;;;;;;3.63;1.30;;;16.40;99.90;;;;;;5026032;28;20473;-74
2022/07/15 01:34:42;;;;;;;3.45;1.33;;;16.30;99.90;;;;;;5019421;28;20038;-74
2022/07/15 01:37:08;;;;;;;3.13;1.63;;;16.30;99.90;;;;;;5034316;28;20416;-73
2022/07/15 01:39:33;;;;;;;3.22;1.38;;;16.50;99.90;;;;;;5019913;28;20046;-74
2022/07/15 01:41:59;;;;;;;2.45;1.25;;;16.30;99.90;;;;;;5028526;28;20037;-74
2022/07/15 01:44:24;;;;;;;1.60;1.40;;;16.30;99.90;;;;;;5019739;28;20049;-74
2022/07/15 01:46:50;;;;;;;1.58;1.23;;;16.20;99.90;;;;;;5026530;28;20053;-74
2022/07/15 01:49:22;;;;;;;1.40;1.20;;;16.30;99.90;;;;;;5024919;28;20560;-74
2022/07/15 01:51:48;;;;;;;1.92;1.23;;;16.10;99.90;;;;;;5032967;28;20060;-74
2022/07/15 01:54:14;;;;;;;2.30;1.20;;;16.60;99.90;;;;;;5026535;28;20694;-74
2022/07/15 01:56:40;;;;;;;2.35;1.10;;;16.30;99.90;;;;;;5033148;28;20116;-75
2022/07/15 01:59:09;;;;;;;2.25;1.10;;;16.20;99.90;;;;;;5028041;28;20161;-74
2022/07/15 02:01:35;;;;;;;2.20;1.25;;;16.20;99.90;;;;;;5035251;28;20033;-75
2022/07/15 02:04:01;;;;;;;2.15;1.10;;;16.80;99.90;;;;;;5027817;28;20045;-74
2022/07/15 02:06:27;;;;;;;1.13;1.00;;;16.20;99.90;;;;;;5029447;28;20051;-74
2022/07/15 02:08:52;;;;;;;1.20;1.08;;;16.20;99.90;;;;;;5042528;28;20053;-75
2022/07/15 02:11:18;;;;;;;1.35;1.10;;;16.40;99.90;;;;;;5026518;28;20056;-74
2022/07/15 02:13:44;;;;;;;1.95;1.00;;;16.00;99.90;;;;;;5032437;28;20128;-75
2022/07/15 02:16:09;;;;;;;1.55;1.00;;;16.00;99.90;;;;;;5027276;28;20176;-74
2022/07/15 02:18:35;;;;;;;1.38;1.00;;;16.50;99.90;;;;;;5028875;28;20041;-74
2022/07/15 02:21:02;;;;;;;0.90;0.90;;;16.80;99.90;;;;;;5035187;28;20115;-74
2022/07/15 02:23:28;;;;;;;1.45;1.00;;;16.30;99.90;;;;;;5034503;28;20045;-74
2022/07/15 02:25:54;;;;;;;1.58;0.90;;;16.20;99.90;;;;;;5026310;28;20061;-74
2022/07/15 02:28:20;;;;;;;0.93;0.93;;;16.00;99.90;;;;;;5030663;28;20476;-74
2022/07/15 02:30:46;;;;;;;2.25;1.17;;;16.10;99.90;;;;;;5054354;28;20042;-74
2022/07/15 02:33:13;;;;;;;2.15;1.27;;;16.40;99.90;;;;;;5033436;28;20053;-74
2022/07/15 02:35:41;;;;;;;1.95;1.00;;;16.10;99.90;;;;;;5030330;28;20048;-74
2022/07/15 02:38:07;;;;;;;1.23;1.10;;;15.90;99.90;;;;;;5033751;28;20515;-74
2022/07/15 02:40:33;;;;;;;1.05;1.02;;;15.90;99.90;;;;;;5024894;28;20049;-74
2022/07/15 02:43:01;;;;;;;0.98;0.98;;;16.00;99.90;;;;;;5025740;28;20401;-74
2022/07/15 02:45:29;;;;;;;1.02;0.90;;;16.30;99.90;;;;;;5030073;28;20165;-74
2022/07/15 02:47:55;;;;;;;1.20;1.02;;;16.20;99.90;;;;;;5028394;28;20155;-74
2022/07/15 02:50:22;;;;;;;0.98;0.90;;;15.80;99.90;;;;;;5032348;28;20041;-74
2022/07/15 02:52:48;;;;;;;1.92;1.00;;;16.00;99.90;;;;;;5025679;28;20038;-74
2022/07/15 02:55:15;;;;;;;1.00;0.90;;;16.50;99.90;;;;;;5033967;28;20042;-74
2022/07/15 02:57:41;;;;;;;1.08;0.98;;;15.80;99.90;;;;;;5027232;28;20125;-74
2022/07/15 03:00:16;;;;;;;0.90;0.90;;;15.90;99.90;;;;;;5023573;28;20113;-74
2022/07/15 03:02:41;;;;;;;0.90;0.90;;;15.60;99.90;;;;;;5047956;28;20052;-74
2022/07/15 03:05:08;;;;;;;4.38;1.10;;;16.00;99.90;;;;;;5022508;28;20051;-74
2022/07/15 03:07:34;;;;;;;1.33;1.00;;;16.00;99.90;;;;;;5031251;28;20103;-74
2022/07/15 03:09:59;;;;;;;2.03;1.30;;;15.90;99.90;;;;;;5036108;28;20057;-74
2022/07/15 03:12:25;;;;;;;1.00;1.00;;;;;;;;;;5030240;28;20456;-74
2022/07/15 03:14:51;;;;;;;1.33;1.02;;;;;;;;;;5031928;28;21214;-74
2022/07/15 03:17:18;;;;;;;1.95;1.00;;;;;;;;;;5018213;28;20050;-74
2022/07/15 03:19:44;;;;;;;1.27;0.93;;;;;;;;;;5023796;28;20041;-74
2022/07/15 03:22:10;;;;;;;1.15;0.90;;;;;;;;;;5048581;28;20091;-74
2022/07/15 03:24:36;;;;;;;1.10;0.93;;;;;;;;;;5017349;28;20049;-74
2022/07/15 03:27:02;;;;;;;1.75;1.20;;;15.70;99.90;;;;;;5033644;28;20072;-74
2022/07/15 03:29:29;;;;;;;1.13;1.10;;;15.90;99.90;;;;;;5028125;28;20072;-74
2022/07/15 03:31:55;;;;;;;1.42;1.00;;;15.90;99.90;;;;;;5029216;28;20107;-74
2022/07/15 03:34:21;;;;;;;1.52;1.00;;;15.90;99.90;;;;;;5047956;28;20037;-74
2022/07/15 03:36:46;;;;;;;1.85;1.20;;;15.70;99.90;;;;;;5029497;28;20496;-74
2022/07/15 03:39:12;;;;;;;1.20;1.10;;;16.00;99.90;;;;;;5029206;28;20080;-74
2022/07/15 03:41:38;;;;;;;1.35;1.08;;;16.00;99.90;;;;;;5036228;28;20045;-74
2022/07/15 03:44:03;;;;;;;1.75;1.10;;;15.70;99.90;;;;;;5030144;28;20038;-74
2022/07/15 03:46:29;;;;;;;2.03;1.13;;;16.00;99.90;;;;;;5035928;28;20405;-74
2022/07/15 03:48:56;;;;;;;1.75;1.17;;;16.00;99.90;;;;;;5046735;28;20111;-74
2022/07/15 03:51:24;;;;;;;1.55;1.05;;;15.70;99.90;;;;;;5030249;28;21026;-74
2022/07/15 03:53:50;;;;;;;1.63;1.17;;;15.60;99.90;;;;;;5023046;28;20048;-74
2022/07/15 03:56:16;;;;;;;2.10;1.08;;;16.40;99.90;;;;;;5020503;28;20049;-74
2022/07/15 03:58:44;;;;;;;3.97;1.30;;;15.80;99.90;;;;;;5035925;28;20068;-74
2022/07/15 04:01:10;;;;;;;3.88;1.20;;;15.90;99.90;;;;;;5023628;28;20043;-74
2022/07/15 04:03:35;;;;;;;2.13;1.20;;;16.00;99.90;;;;;;5026614;28;20045;-74
2022/07/15 04:06:01;;;;;;;1.55;1.10;;;16.50;99.90;;;;;;5028831;28;20068;-74
2022/07/15 04:08:27;;;;;;;1.13;1.00;;;15.90;99.90;;;;;;5028668;28;20880;-74
2022/07/15 04:10:52;;;;;;;2.72;1.10;;;15.90;99.90;;;;;;5031373;28;20037;-74
2022/07/15 04:13:18;;;;;;;1.63;1.10;;;15.80;99.90;;;;;;5020159;28;20087;-74
2022/07/15 04:15:46;;;;;;;1.95;1.10;;;15.70;99.90;;;;;;5011565;28;20045;-74
2022/07/15 04:18:11;;;;;;;3.90;1.20;;;15.70;99.90;;;;;;5019157;28;20088;-74
2022/07/15 04:20:37;;;;;;;2.20;1.00;;;16.00;99.90;;;;;;5017327;28;20486;-74
2022/07/15 04:23:03;;;;;;;4.03;1.33;;;15.90;99.90;;;;;;5014902;28;20051;-74
2022/07/15 04:25:28;;;;;;;1.60;1.10;;;16.10;99.90;;;;;;5032651;28;20054;-74
2022/07/15 04:27:54;;;;;;;2.70;1.23;;;16.40;99.90;;;;;;5053385;28;20041;-74
2022/07/15 04:30:20;;;;;;;1.30;1.10;;;16.10;99.90;;;;;;5027590;28;20045;-74
2022/07/15 04:32:46;;;;;;;1.42;1.10;;;16.20;99.90;;;;;;5020532;28;20132;-74
2022/07/15 04:35:11;;;;;;;2.00;1.10;;;16.50;99.90;;;;;;5024567;28;20505;-74
2022/07/15 04:37:37;;;;;;;3.30;1.30;;;16.50;99.90;;;;;;5024096;28;20397;-74
2022/07/15 04:40:03;;;;;;;1.65;1.10;;;16.80;99.90;;;;;;5027433;28;20045;-74
2022/07/15 04:42:28;;;;;;;2.90;1.30;;;16.10;99.90;;;;;;5020397;28;20091;-74
2022/07/15 04:44:54;;;;;;;2.35;1.20;;;16.40;99.90;;;;;;5022767;28;20034;-74
2022/07/15 04:47:20;;;;;;;2.42;1.30;;;16.60;99.90;;;;;;5023041;28;20038;-75
2022/07/15 04:52:30;;;;;;;1.17;1.10;;;16.70;99.90;;;;;;5028873;28;20072;-73
2022/07/15 04:54:56;;;;;;;3.53;1.20;;;16.80;99.90;;;;;;5034143;28;20045;-74
2022/07/15 04:57:22;;;;;;;4.00;1.40;;;16.30;99.90;;;;;;5038079;28;20041;-74
2022/07/15 04:59:48;;;;;;;1.85;1.20;;;16.60;99.90;;;;;;5034453;28;20057;-74
2022/07/15 05:02:13;;;;;;;2.42;1.23;;;17.00;99.90;;;;;;5034425;28;20455;-73
2022/07/15 05:04:39;;;;;;;1.30;1.20;;;16.60;99.90;;;;;;5030417;28;20037;-74
2022/07/15 05:07:05;;;;;;;2.08;1.20;;;16.60;99.90;;;;;;5028328;28;20493;-74
2022/07/15 05:09:31;;;;;;;2.95;1.25;;;17.10;99.90;;;;;;5029801;28;20124;-74
2022/07/15 05:11:57;;;;;;;3.15;1.33;;;17.30;99.90;;;;;;5030855;28;20045;-74
2022/07/15 05:14:22;;;;;;;2.42;1.25;;;17.00;99.90;;;;;;5029720;28;20079;-74
2022/07/15 05:16:48;;;;;;;2.95;1.20;;;16.80;99.90;;;;;;5031918;28;20144;-73
2022/07/15 05:19:14;;;;;;;1.30;1.05;;;16.80;99.90;;;;;;5033139;28;20092;-73
2022/07/15 05:21:40;;;;;;;2.38;1.15;;;16.70;99.90;;;;;;5023396;28;20056;-73
2022/07/15 05:24:05;;;;;;;5.00;1.42;;;16.80;99.90;;;;;;5027138;28;20038;-74
2022/07/15 05:26:31;;;;;;;1.85;1.20;;;17.20;99.90;;;;;;5034485;28;20048;-74
2022/07/15 05:28:57;;;;;;;2.92;1.25;;;17.00;99.90;;;;;;5030741;28;20038;-73
2022/07/15 05:31:22;;;;;;;4.70;1.33;;;17.30;99.90;;;;;;5031145;28;20058;-74
2022/07/15 05:33:48;;;;;;;1.50;1.10;;;16.70;99.90;;;;;;5042010;28;20076;-74
2022/07/15 05:36:15;;;;;;;3.25;1.65;;;17.40;99.90;;;;;;5036753;28;20574;-74
2022/07/15 05:38:42;;;;;;;1.58;1.20;;;16.70;99.90;;;;;;5025528;28;20494;-74
2022/07/15 05:41:08;;;;;;;1.25;1.15;;;16.90;99.90;;;;;;5051091;28;20077;-73
2022/07/15 05:43:37;;;;;;;1.48;1.10;;;16.80;99.90;;;;;;5028092;28;20940;-73
2022/07/15 05:46:06;;;;;;;2.75;1.38;;;16.90;99.90;;;;;;5038093;28;20441;-74
2022/07/15 05:48:33;;;;;;;1.92;1.20;;;16.60;99.90;;;;;;5025965;28;20077;-74
2022/07/15 05:50:58;;;;;;;2.80;1.20;;;17.10;99.90;;;;;;5020744;28;20048;-74
2022/07/15 05:53:26;;;;;;;2.67;1.30;;;16.90;99.90;;;;;;5031990;28;20049;-74
2022/07/15 05:55:52;;;;;;;2.15;1.30;;;17.20;99.90;;;;;;5024205;28;20401;-74
2022/07/15 05:58:18;;;;;;;2.47;1.35;;;17.10;99.90;;;;;;5031483;28;20515;-74
2022/07/15 06:00:44;;;;;;;3.22;1.40;;;17.30;99.90;;;;;;5034467;28;20037;-73
2022/07/15 06:03:10;;;;;;;2.33;1.55;;;17.20;99.90;;;;;;5032791;28;20053;-73
2022/07/15 06:05:35;;;;;;;1.48;1.20;;;17.50;99.90;;;;;;5028997;28;20052;-74
2022/07/15 06:08:01;;;;;;;2.47;1.10;;;17.30;99.90;;;;;;5020788;28;20049;-73
2022/07/15 06:10:27;;;;;;;2.00;1.30;;;17.00;99.90;;;;;;5019309;28;20048;-73
2022/07/15 06:12:53;;;;;;;2.20;1.15;;;17.10;99.90;;;;;;5024694;28;20121;-73
2022/07/15 06:15:20;;;;;;;4.55;1.30;;;17.20;99.90;;;;;;5020760;28;20120;-74
2022/07/15 06:17:45;;;;;;;1.95;1.13;;;17.20;99.90;;;;;;5013599;28;20046;-73
2022/07/15 06:20:11;;;;;;;2.33;1.42;;;17.30;99.90;;;;;;5020203;28;20050;-73
2022/07/15 06:22:38;;;;;;;4.03;1.40;;;;;;;;;;5016261;28;20187;-73
2022/07/15 06:25:04;;;;;;;1.20;1.10;;;;;;;;;;5021999;28;20049;-73
2022/07/15 06:27:30;;;;;;;1.63;1.10;;;;;;;;;;5022259;28;20132;-73
2022/07/15 06:29:57;;;;;;;3.28;1.20;;;;;;;;;;5028984;28;20148;-73
2022/07/15 06:32:23;;;;;;;1.55;1.13;;;;;;;;;;5029718;28;20052;-73
2022/07/15 06:34:49;;;;;;;1.23;1.10;;;;;;;;;;5023084;28;20057;-73
2022/07/15 06:37:15;;;;;;;2.58;1.00;;;;;;;;;;5031770;28;20044;-73
2022/07/15 06:39:41;;;;;;;3.25;1.30;;;;;;;;;;5030970;28;20045;-73
2022/07/15 06:42:07;;;;;;;3.38;1.25;;;;;;;;;;5035656;28;20421;-73
2022/07/15 06:44:34;;;;;;;1.63;1.10;;;;;;;;;;5040794;28;20041;-73
2022/07/15 06:47:00;;;;;;;2.45;1.20;;;;;;;;;;5037156;28;20442;-74
2022/07/15 06:49:26;;;;;;;3.05;1.17;;;;;;;;;;5046971;28;20048;-73
2022/07/15 06:51:52;;;;;;;3.05;1.30;;;;;;;;;;5042776;28;20053;-74
2022/07/15 06:54:18;;;;;;;1.42;1.17;;;;;;;;;;5032506;28;20147;-74
2022/07/15 06:56:44;;;;;;;2.05;1.25;;;;;;;;;;5034370;28;21466;-74
2022/07/15 06:59:10;;;;;;;4.90;1.48;;;;;;;;;;5037850;28;20053;-73
2022/07/15 07:01:36;;;;;;;2.15;1.23;;;;;;;;;;5047361;28;20076;-73
2022/07/15 07:04:03;;;;;;;1.50;1.25;;;;;;;;;;5044950;28;20037;-73
2022/07/15 07:06:29;;;;;;;2.72;1.15;;;;;;;;;;5064943;28;20064;-73
2022/07/15 07:08:55;;;;;;;3.45;1.20;;;;;;;;;;4980107;28;20077;-73
2022/07/15 07:11:24;;;;;;;1.48;1.38;;;;;;;;;;4975373;28;20039;-73
2022/07/15 07:13:50;;;;;;;1.60;1.10;;;;;;;;;;4988243;28;20051;-73
2022/07/15 07:16:16;;;;;;;3.95;1.30;;;;;;;;;;4987687;28;20050;-73
2022/07/15 07:18:44;;;;;;;2.78;1.20;;;;;;;;;;4989588;28;20042;-73
2022/07/15 07:21:10;;;;;;;1.40;1.30;;;;;;;;;;4997217;28;20062;-72
2022/07/15 07:23:39;;;;;;;1.30;1.10;;;;;;;;;;4986946;28;20038;-73
2022/07/15 07:26:05;;;;;;;1.50;1.00;;;;;;;;;;5002168;28;20055;-73
2022/07/15 07:28:32;;;;;;;1.48;1.10;;;;;;;;;;4984043;28;20453;-72
2022/07/15 07:30:59;;;;;;;1.25;0.93;;;;;;;;;;4982778;28;20493;-72
2022/07/15 07:33:25;;;;;;;1.90;1.10;;;;;;;;;;4979766;28;20502;-73
2022/07/15 07:35:52;;;;;;;2.13;1.20;;;;;;;;;;4985652;28;20401;-72
2022/07/15 07:38:19;;;;;;;2.70;1.30;;;;;;;;;;4986579;28;20042;-73
2022/07/15 07:40:47;;;;;;;1.52;1.42;;;;;;;;;;4995241;28;20054;-73
2022/07/15 07:43:14;;;;;;;4.15;1.33;;;;;;;;;;4987279;28;20046;-72
2022/07/15 07:45:41;;;;;;;3.50;1.17;;;;;;;;;;4984838;28;20397;-73
2022/07/15 07:48:07;;;;;;;3.38;1.20;;;;;;;;;;4977772;28;20055;-73
2022/07/15 07:50:33;;;;;;;1.33;1.17;;;;;;;;;;5001112;28;20070;-73
2022/07/15 07:53:01;;;;;;;1.15;1.00;;;;;;;;;;4984099;28;20046;-73
2022/07/15 07:55:28;;;;;;;1.25;1.10;;;;;;;;;;4981448;28;20494;-73
2022/07/15 07:57:55;;;;;;;1.10;1.00;;;;;;;;;;4998333;28;20408;-73
2022/07/15 08:00:21;;;;;;;1.67;1.00;;;;;;;;;;4983613;28;20454;-73
2022/07/15 08:02:47;;;;;;;3.03;1.10;;;;;;;;;;4997458;28;20054;-73
2022/07/15 08:05:14;;;;;;;2.30;1.10;;;;;;;;;;4979285;28;20043;-73
2022/07/15 08:07:41;;;;;;;1.17;1.10;;;;;;;;;;4988138;28;20141;-73
2022/07/15 08:10:08;;;;;;;1.05;1.00;;;;;;;;;;4991266;28;20190;-73
2022/07/15 08:12:34;;;;;;;2.45;1.20;;;;;;;;;;4987541;28;20058;-73
2022/07/15 08:15:00;;;;;;;1.55;1.00;;;;;;;;;;4985872;28;20048;-73
2022/07/15 08:17:26;;;;;;;2.22;1.00;;;;;;;;;;4985978;28;20498;-73
2022/07/15 08:19:52;;;;;;;2.83;1.40;;;;;;;;;;4984120;28;20092;-73
2022/07/15 08:22:18;;;;;;;2.83;1.00;;;;;;;;;;4982399;28;20058;-73
2022/07/15 08:24:45;;;;;;;3.25;1.35;;;;;;;;;;4981481;28;20115;-73
2022/07/15 08:27:11;;;;;;;2.80;1.30;;;;;;;;;;4985149;28;20070;-73
2022/07/15 08:29:38;;;;;;;2.85;1.40;;;;;;;;;;5000308;28;20407;-74
2022/07/15 08:32:04;;;;;;;3.13;1.20;;;;;;;;;;4983340;28;20532;-73
2022/07/15 08:34:30;;;;;;;2.35;1.13;;;;;;;;;;4989819;28;20049;-73
2022/07/15 08:36:56;;;;;;;2.10;1.10;;;;;;;;;;4982584;28;20053;-73
2022/07/15 08:39:23;;;;;;;3.42;1.23;;;;;;;;;;4976920;28;20043;-73
2022/07/15 08:41:51;;;;;;;2.13;1.15;;;;;;;;;;4967913;28;20441;-72
2022/07/15 08:44:17;;;;;;;2.92;1.40;;;;;;;;;;4983790;28;20050;-73
2022/07/15 08:46:47;;;;;;;1.92;1.10;;;;;;;;;;4984073;28;20510;-72
2022/07/15 08:49:15;;;;;;;2.75;1.20;;;;;;;;;;4998612;28;20195;-72
2022/07/15 08:51:43;;;;;;;3.35;1.20;;;;;;;;;;4994259;28;20079;-73
2022/07/15 08:54:09;;;;;;;2.20;1.10;;;;;;;;;;4982247;28;20129;-72
2022/07/15 08:56:38;;;;;;;1.58;1.00;;;;;;;;;;4988689;28;20046;-73
2022/07/15 08:59:05;;;;;;;2.75;1.17;;;;;;;;;;5003516;28;20092;-73
2022/07/15 09:01:33;;;;;;;2.47;1.13;;;;;;;;;;5002439;28;20402;-73
2022/07/15 09:03:59;;;;;;;2.45;1.45;;;;;;;;;;4977224;28;20043;-73
2022/07/15 09:06:40;;;;;;;6.30;1.30;;;;;;;;;;4976653;28;20065;-73
2022/07/15 09:09:26;;;;;;;3.08;1.30;;;;;;;;;;4980813;28;20053;-74
2022/07/15 09:11:58;;;;;;;2.88;1.15;;;;;;;;;;4996230;28;20506;-73
2022/07/15 09:14:28;;;;;;;1.30;1.17;;;;;;;;;;4981466;28;20085;-74
2022/07/15 09:17:12;;;;;;;3.17;1.67;;;;;;;;;;4986695;28;20114;-73
2022/07/15 09:19:57;;;;;;;1.88;0.98;;;;;;;;;;4986327;28;20517;-72
2022/07/15 09:22:23;;;;;;;5.32;1.10;;;;;;;;;;4998166;28;20065;-73
2022/07/15 09:25:16;;;;;;;3.55;1.33;;;;;;;;;;4996476;28;20065;-73
2022/07/15 09:27:43;;;;;;;1.35;1.17;;;;;;;;;;4977296;28;20050;-73
2022/07/15 09:36:02;;;;;;;2.80;1.40;;;;;;;;;;4984168;28;20122;-73
2022/07/15 09:38:33;;;;;;;1.55;1.10;;;;;;;;;;4987858;28;20226;-74
2022/07/15 09:40:59;;;;;;;2.30;1.23;;;;;;;;;;5005576;28;20082;-73
2022/07/15 09:43:25;;;;;;;5.32;1.40;;;;;;;;;;4981123;28;20046;-73
2022/07/15 09:45:59;;;;;;;2.63;1.42;;;;;;;;;;4980801;28;20047;-74
2022/07/15 09:48:28;;;;;;;1.50;1.20;;;;;;;;;;4986116;28;20092;-73
2022/07/15 09:50:58;;;;;;;2.15;1.13;;;;;;;;;;4981418;28;20042;-73
2022/07/15 09:53:25;;;;;;;2.38;1.30;;;;;;;;;;4987174;28;20515;-74
2022/07/15 09:55:51;;;;;;;6.05;1.58;;;;;;;;;;4978230;28;20080;-74
2022/07/15 09:58:23;;;;;;;6.65;1.50;;;;;;;;;;4985204;28;20112;-73
2022/07/15 10:00:51;;;;;;;3.22;1.27;;;;;;;;;;4987543;28;20498;-73
2022/07/15 10:03:17;;;;;;;1.23;1.13;;;;;;;;;;4985804;28;20455;-73
2022/07/15 10:05:44;;;;;;;4.03;1.40;;;;;;;;;;4976840;28;20046;-73
2022/07/15 10:08:10;;;;;;;2.05;1.10;;;;;;;;;;4997936;28;20046;-73
2022/07/15 10:10:39;;;;;;;3.70;1.48;;;;;;;;;;4987311;28;20486;-74
2022/07/15 10:13:14;;;;;;;3.28;1.30;;;;;;;;;;4983245;28;20046;-74
2022/07/15 10:16:01;;;;;;;2.75;1.25;;;;;;;;;;4987516;28;20065;-74
2022/07/15 10:18:47;;;;;;;2.30;1.30;;;;;;;;;;4981461;28;20505;-73
2022/07/15 10:21:30;;;;;;;2.58;1.20;;;;;;;;;;4982293;28;20470;-72
2022/07/15 10:23:56;;;;;;;1.25;1.13;;;;;;;;;;4978326;28;20046;-73
2022/07/15 10:26:34;;;;;;;2.30;1.40;;;;;;;;;;4976397;28;20105;-74
2022/07/15 10:29:04;;;;;;;2.15;1.33;;;;;;;;;;4987277;28;20047;-73
2022/07/15 10:31:32;;;;;;;2.28;1.30;;;;;;;;;;4980338;28;20129;-73
2022/07/15 10:34:07;;;;;;;3.30;1.48;;;;;;;;;;4989686;28;20054;-76
2022/07/15 10:36:39;;;;;;;2.30;1.27;;;;;;;;;;4983658;28;20030;-74
2022/07/15 10:39:06;;;;;;;1.60;1.45;;;;;;;;;;4979854;28;20047;-74
2022/07/15 10:41:47;;;;;;;2.58;1.52;;;;;;;;;;4985506;28;20068;-72
2022/07/15 10:44:13;;;;;;;1.75;1.23;;;;;;;;;;4980288;28;20045;-73
2022/07/15 10:46:39;;;;;;;4.40;1.60;;;;;;;;;;4983067;28;20121;-73
2022/07/15 10:49:11;;;;;;;1.60;1.20;;;;;;;;;;4990925;28;20494;-73
2022/07/15 10:51:37;;;;;;;1.88;1.40;;;;;;;;;;4986269;28;20049;-73
2022/07/15 10:54:07;;;;;;;3.30;1.50;;;;;;;;;;4985327;28;20042;-72
2022/07/15 10:56:37;;;;;;;6.65;1.70;;;;;;;;;;4988655;28;20367;-72
2022/07/15 10:59:11;;;;;;;3.42;1.67;;;;;;;;;;4982245;28;20080;-73
2022/07/15 11:01:38;;;;;;;2.95;1.50;;;;;;;;;;4985886;28;20152;-73
2022/07/15 11:04:24;;;;;;;3.00;1.70;;;;;;;;;;4978255;28;20084;-74
2022/07/15 11:07:06;;;;;;;2.72;1.40;;;;;;;;;;4994280;28;20389;-74
2022/07/15 11:09:48;;;;;;;1.55;1.45;;;;;;;;;;4985161;28;20056;-74
2022/07/15 11:12:15;;;;;;;3.33;1.60;;;;;;;;;;4982970;28;20059;-74
2022/07/15 11:14:44;;;;;;;3.92;1.70;;;;;;;;;;4986062;28;20498;-73
2022/07/15 11:17:11;;;;;;;6.68;1.70;;;;;;;;;;4991615;28;20061;-74
2022/07/15 11:19:37;;;;;;;2.97;1.70;;;;;;;;;;4990128;28;20144;-74
2022/07/15 11:22:03;;;;;;;2.63;1.55;;;;;;;;;;4982407;28;20490;-73
2022/07/15 11:24:31;;;;;;;2.13;1.50;;;;;;;;;;4989779;28;20061;-73
2022/07/15 11:27:00;;;;;;;3.35;1.48;;;;;;;;;;4991006;28;20081;-72
2022/07/15 11:29:26;;;;;;;3.92;1.50;;;;;;;;;;4973035;28;20051;-73
2022/07/15 11:31:52;;;;;;;3.80;1.80;;;;;;;;;;4981262;28;20059;-72
2022/07/15 11:34:18;;;;;;;3.78;1.67;;;;;;;;;;4993488;28;20073;-73
2022/07/15 11:36:44;;;;;;;3.60;1.60;;;;;;;;;;4992990;28;20041;-74
2022/07/15 11:39:10;;;;;;;3.42;1.63;;;;;;;;;;5002869;28;20122;-73
2022/07/15 11:44:30;;;;;;;3.65;1.58;;;;;;;;;;4990412;28;20047;-73
2022/07/15 11:47:05;;;;;;;2.65;1.63;;;;;;;;;;4989631;28;20090;-73
2022/07/15 11:49:32;;;;;;;2.85;1.90;;;;;;;;;;4983764;28;20066;-72
2022/07/15 11:51:59;;;;;;;2.35;1.60;;;;;;;;;;4993178;28;20585;-72
2022/07/15 11:54:25;;;;;;;2.90;1.50;;;;;;;;;;4986314;28;20096;-74
2022/07/15 11:56:55;;;;;;;3.38;1.60;;;;;;;;;;4989536;28;20046;-74
2022/07/15 11:59:21;;;;;;;5.72;1.80;;;;;;;;;;4996766;28;20047;-73
2022/07/15 12:01:47;;;;;;;2.55;1.55;;;;;;;;;;4982656;28;20038;-73
2022/07/15 12:04:13;;;;;;;2.25;1.40;;;;;;;;;;4989281;28;20061;-73
2022/07/15 12:06:39;;;;;;;4.90;1.73;;;;;;;;;;4980684;28;20812;-74
2022/07/15 12:09:08;;;;;;;3.63;1.60;;;;;;;;;;4990216;28;20058;-73
2022/07/15 12:11:36;;;;;;;3.05;1.80;;;;;;;;;;4987221;28;20127;-74
2022/07/15 12:14:07;;;;;;;2.78;1.55;;;;;;;;;;4977503;28;20085;-74
2022/07/15 12:16:41;;;;;;;1.50;1.40;;;;;;;;;;4985866;28;20083;-74
2022/07/15 12:19:17;;;;;;;2.55;1.40;;;;;;;;;;4991142;28;20516;-73
2022/07/15 12:21:44;;;;;;;4.65;1.70;;;;;;;;;;4985231;28;20058;-73
2022/07/15 12:24:15;;;;;;;5.63;1.65;;;;;;;;;;4995633;28;20042;-73
2022/07/15 12:27:01;;;;;;;6.63;1.73;;;;;;;;;;5003409;28;20047;-74
2022/07/15 12:29:29;;;;;;;4.00;1.80;;;;;;;;;;4979381;28;20395;-74
2022/07/15 12:31:59;;;;;;;4.25;1.70;;;;;;;;;;4984790;28;20054;-74
2022/07/15 12:34:44;;;;;;;4.20;1.90;;;;;;;;;;5006256;28;20050;-74
2022/07/15 12:37:11;;;;;;;1.70;1.60;;;;;;;;;;4988572;28;20117;-73
2022/07/15 12:39:56;;;;;;;3.13;1.73;;;;;;;;;;4976592;28;20486;-74
2022/07/15 12:42:22;;;;;;;2.17;1.67;;;;;;;;;;4980611;28;20046;-75
2022/07/15 12:45:07;;;;;;;1.83;1.63;;;;;;;;;;4975582;28;20050;-75
2022/07/15 12:47:33;;;;;;;3.60;1.88;;;;;;;;;;4979304;28;20169;-74
2022/07/15 12:50:00;;;;;;;3.17;1.77;;;;;;;;;;5002387;28;20125;-74
2022/07/15 12:52:39;;;;;;;4.57;2.10;;;;;;;;;;4980073;28;20514;-74
2022/07/15 12:55:14;;;;;;;4.00;1.85;;;;;;;;;;4994438;28;20070;-74
2022/07/15 12:57:40;;;;;;;2.75;1.80;;;;;;;;;;4986348;28;20109;-75
2022/07/15 13:00:07;;;;;;;3.42;1.65;;;;;;;;;;4983272;28;20039;-74
2022/07/15 13:02:53;;;;;;;6.22;2.10;;;;;;;;;;4975696;28;20081;-74
2022/07/15 13:05:20;;;;;;;6.10;2.00;;;;;;;;;;4978867;28;20078;-75
2022/07/15 13:07:46;;;;;;;1.98;1.67;;;;;;;;;;4987904;28;20046;-74
2022/07/15 13:10:13;;;;;;;2.90;1.70;;;;;;;;;;4975362;28;20050;-74
2022/07/15 13:12:39;;;;;;;2.88;1.80;;;;;;;;;;4975023;28;20104;-74
2022/07/15 13:15:05;;;;;;;5.35;1.83;;;;;;;;;;4970614;28;20054;-74
2022/07/15 13:17:31;;;;;;;4.32;2.10;;;;;;;;;;4979571;28;20046;-74
2022/07/15 13:19:57;;;;;;;4.15;2.08;;;;;;;;;;4977330;28;20058;-74
2022/07/15 13:22:24;;;;;;;5.93;2.15;;;;;;;;;;4975910;28;20058;-74
2022/07/15 13:24:50;;;;;;;3.20;2.10;;;;;;;;;;4997850;28;20066;-75
2022/07/15 13:27:16;;;;;;;2.95;1.80;;;;;;;;;;4976450;28;20082;-74
2022/07/15 13:29:42;;;;;;;3.40;1.98;;;;;;;;;;4979521;28;21174;-75
2022/07/15 13:32:08;;;;;;;2.47;1.98;;;;;;;;;;4975636;28;20061;-74
2022/07/15 13:34:34;;;;;;;3.95;2.00;;;;;;;;;;4976154;28;20054;-75
2022/07/15 13:37:00;;;;;;;3.30;1.90;;;;;;;;;;4980030;28;20039;-75
2022/07/15 13:39:26;;;;;;;5.35;2.20;;;;;;;;;;4974816;28;20050;-74
2022/07/15 13:41:52;;;;;;;3.90;1.85;;;;;;;;;;4978026;28;20406;-75
2022/07/15 13:44:18;;;;;;;2.80;1.90;;;;;;;;;;4974290;28;20526;-75
2022/07/15 13:46:44;;;;;;;5.97;2.30;;;;;;;;;;4980050;28;20046;-83
2022/07/15 13:49:10;;;;;;;5.20;2.15;;;;;;;;;;4981810;28;20050;-74
2022/07/15 13:51:40;;;;;;;4.80;2.10;;;;;;;;;;4981908;28;20094;-76
2022/07/15 13:54:06;;;;;;;7.18;1.95;;;;;;;;;;4985862;28;20050;-74
2022/07/15 13:56:32;;;;;;;3.90;1.75;;;;;;;;;;4971658;28;20047;-75
2022/07/15 13:59:00;;;;;;;3.33;1.90;;;;;;;;;;4999958;28;20058;-75
2022/07/15 14:01:27;;;;;;;4.43;2.10;;;;;;;;;;4973243;28;20533;-75
2022/07/15 14:03:54;;;;;;;4.50;2.30;;;;;;;;;;4988064;28;20529;-74
2022/07/15 14:06:20;;;;;;;2.97;2.05;;;;;;;;;;4993780;28;20482;-74
2022/07/15 14:08:46;;;;;;;2.97;1.70;;;;;;;;;;4990246;28;20038;-74
2022/07/15 14:11:12;;;;;;;3.67;1.92;;;;;;;;;;4985855;28;20035;-73